sensor_id;sensor_type;location;lat;lon;timestamp;P1;durP1;ratioP1;P2;durP2;ratioP2
60060;SDS011;45933;51.336;12.612;2023-03-01T00:01:47;18.67;;;10.07;;
60060;SDS011;45933;51.336;12.612;2023-03-01T00:04:12;18.07;;;10.60;;
60060;SDS011;45933;51.336;12.612;2023-03-01T00:06:38;17.53;;;9.67;;
60060;SDS011;45933;51.336;12.612;2023-03-01T00:09:03;17.03;;;9.53;;
60060;SDS011;45933;51.336;12.612;2023-03-01T00:11:30;17.37;;;10.30;;
60060;SDS011;45933;51.336;12.612;2023-03-01T00:13:57;15.90;;;10.10;;
60060;SDS011;45933;51.336;12.612;2023-03-01T00:16:25;20.30;;;10.53;;
60060;SDS011;45933;51.336;12.612;2023-03-01T00:18:53;16.80;;;10.00;;
60060;SDS011;45933;51.336;12.612;2023-03-01T00:21:19;19.07;;;10.90;;
60060;SDS011;45933;51.336;12.612;2023-03-01T00:23:46;18.80;;;10.57;;
60060;SDS011;45933;51.336;12.612;2023-03-01T00:26:13;17.83;;;10.50;;
60060;SDS011;45933;51.336;12.612;2023-03-01T00:28:40;18.77;;;11.40;;
60060;SDS011;45933;51.336;12.612;2023-03-01T00:31:06;18.90;;;11.13;;
60060;SDS011;45933;51.336;12.612;2023-03-01T00:33:34;19.17;;;12.07;;
60060;SDS011;45933;51.336;12.612;2023-03-01T00:36:00;14.73;;;10.27;;
60060;SDS011;45933;51.336;12.612;2023-03-01T00:38:26;14.80;;;9.77;;
60060;SDS011;45933;51.336;12.612;2023-03-01T00:40:52;16.87;;;9.63;;
60060;SDS011;45933;51.336;12.612;2023-03-01T00:43:17;17.30;;;10.37;;
60060;SDS011;45933;51.336;12.612;2023-03-01T00:45:43;15.00;;;9.77;;
60060;SDS011;45933;51.336;12.612;2023-03-01T00:48:08;15.67;;;9.40;;
60060;SDS011;45933;51.336;12.612;2023-03-01T00:50:33;15.57;;;9.63;;
60060;SDS011;45933;51.336;12.612;2023-03-01T00:52:59;15.17;;;9.70;;
60060;SDS011;45933;51.336;12.612;2023-03-01T00:55:24;15.83;;;9.90;;
60060;SDS011;45933;51.336;12.612;2023-03-01T00:57:50;17.97;;;9.93;;
60060;SDS011;45933;51.336;12.612;2023-03-01T01:00:15;16.67;;;9.57;;
60060;SDS011;45933;51.336;12.612;2023-03-01T01:02:41;15.70;;;9.60;;
60060;SDS011;45933;51.336;12.612;2023-03-01T01:05:07;14.33;;;9.30;;
60060;SDS011;45933;51.336;12.612;2023-03-01T01:07:32;14.43;;;8.67;;
60060;SDS011;45933;51.336;12.612;2023-03-01T01:09:58;14.93;;;8.67;;
60060;SDS011;45933;51.336;12.612;2023-03-01T01:12:23;12.77;;;8.80;;
60060;SDS011;45933;51.336;12.612;2023-03-01T01:14:48;14.10;;;8.50;;
60060;SDS011;45933;51.336;12.612;2023-03-01T01:17:14;15.20;;;9.17;;
60060;SDS011;45933;51.336;12.612;2023-03-01T01:19:39;17.30;;;9.53;;
60060;SDS011;45933;51.336;12.612;2023-03-01T01:22:04;15.10;;;10.00;;
60060;SDS011;45933;51.336;12.612;2023-03-01T01:24:30;15.77;;;9.20;;
60060;SDS011;45933;51.336;12.612;2023-03-01T01:26:55;15.33;;;9.10;;
60060;SDS011;45933;51.336;12.612;2023-03-01T01:29:20;15.80;;;9.40;;
60060;SDS011;45933;51.336;12.612;2023-03-01T01:31:46;17.47;;;9.17;;
60060;SDS011;45933;51.336;12.612;2023-03-01T01:34:15;14.37;;;9.17;;
60060;SDS011;45933;51.336;12.612;2023-03-01T01:36:42;16.77;;;9.07;;
60060;SDS011;45933;51.336;12.612;2023-03-01T01:39:08;13.83;;;8.80;;
60060;SDS011;45933;51.336;12.612;2023-03-01T01:41:38;15.10;;;9.03;;
60060;SDS011;45933;51.336;12.612;2023-03-01T01:44:15;14.33;;;8.47;;
60060;SDS011;45933;51.336;12.612;2023-03-01T01:51:55;15.80;;;9.30;;
60060;SDS011;45933;51.336;12.612;2023-03-01T01:54:27;15.20;;;9.63;;
60060;SDS011;45933;51.336;12.612;2023-03-01T01:57:02;16.70;;;10.17;;
60060;SDS011;45933;51.336;12.612;2023-03-01T01:59:31;16.00;;;9.40;;
60060;SDS011;45933;51.336;12.612;2023-03-01T02:01:59;15.17;;;9.50;;
60060;SDS011;45933;51.336;12.612;2023-03-01T02:04:26;16.47;;;9.77;;
60060;SDS011;45933;51.336;12.612;2023-03-01T02:07:01;16.97;;;9.47;;
60060;SDS011;45933;51.336;12.612;2023-03-01T02:09:34;16.77;;;9.70;;
60060;SDS011;45933;51.336;12.612;2023-03-01T02:12:01;17.50;;;9.50;;
60060;SDS011;45933;51.336;12.612;2023-03-01T02:14:27;16.87;;;9.70;;
60060;SDS011;45933;51.336;12.612;2023-03-01T02:16:52;13.47;;;9.30;;
60060;SDS011;45933;51.336;12.612;2023-03-01T02:19:23;15.97;;;8.83;;
60060;SDS011;45933;51.336;12.612;2023-03-01T02:22:07;16.20;;;9.23;;
60060;SDS011;45933;51.336;12.612;2023-03-01T02:24:55;13.03;;;8.60;;
60060;SDS011;45933;51.336;12.612;2023-03-01T02:27:38;15.90;;;9.10;;
60060;SDS011;45933;51.336;12.612;2023-03-01T02:30:11;18.83;;;8.93;;
60060;SDS011;45933;51.336;12.612;2023-03-01T02:32:37;15.60;;;9.23;;
60060;SDS011;45933;51.336;12.612;2023-03-01T02:35:06;14.60;;;9.47;;
60060;SDS011;45933;51.336;12.612;2023-03-01T02:37:37;17.33;;;9.87;;
60060;SDS011;45933;51.336;12.612;2023-03-01T02:40:06;15.53;;;9.37;;
60060;SDS011;45933;51.336;12.612;2023-03-01T02:42:38;22.70;;;9.43;;
60060;SDS011;45933;51.336;12.612;2023-03-01T02:45:11;14.43;;;9.27;;
60060;SDS011;45933;51.336;12.612;2023-03-01T02:47:36;16.37;;;8.77;;
60060;SDS011;45933;51.336;12.612;2023-03-01T02:50:01;15.63;;;9.03;;
60060;SDS011;45933;51.336;12.612;2023-03-01T02:52:30;18.10;;;9.40;;
60060;SDS011;45933;51.336;12.612;2023-03-01T02:55:11;15.77;;;9.03;;
60060;SDS011;45933;51.336;12.612;2023-03-01T02:57:39;14.13;;;8.37;;
60060;SDS011;45933;51.336;12.612;2023-03-01T03:00:11;13.73;;;8.30;;
60060;SDS011;45933;51.336;12.612;2023-03-01T03:02:44;17.10;;;8.97;;
60060;SDS011;45933;51.336;12.612;2023-03-01T03:05:12;16.53;;;9.17;;
60060;SDS011;45933;51.336;12.612;2023-03-01T03:07:48;15.17;;;9.07;;
60060;SDS011;45933;51.336;12.612;2023-03-01T03:10:22;16.47;;;9.17;;
60060;SDS011;45933;51.336;12.612;2023-03-01T03:12:50;16.93;;;9.83;;
60060;SDS011;45933;51.336;12.612;2023-03-01T03:15:17;16.77;;;9.90;;
60060;SDS011;45933;51.336;12.612;2023-03-01T03:17:43;17.00;;;9.97;;
60060;SDS011;45933;51.336;12.612;2023-03-01T03:20:10;19.70;;;9.73;;
60060;SDS011;45933;51.336;12.612;2023-03-01T03:22:40;17.30;;;9.90;;
60060;SDS011;45933;51.336;12.612;2023-03-01T03:25:06;13.60;;;9.07;;
60060;SDS011;45933;51.336;12.612;2023-03-01T03:27:38;17.33;;;9.93;;
60060;SDS011;45933;51.336;12.612;2023-03-01T03:30:06;17.53;;;10.00;;
60060;SDS011;45933;51.336;12.612;2023-03-01T03:32:37;16.80;;;10.23;;
60060;SDS011;45933;51.336;12.612;2023-03-01T03:35:04;16.87;;;10.57;;
60060;SDS011;45933;51.336;12.612;2023-03-01T03:37:37;18.83;;;10.23;;
60060;SDS011;45933;51.336;12.612;2023-03-01T03:40:22;16.10;;;9.93;;
60060;SDS011;45933;51.336;12.612;2023-03-01T03:42:47;18.10;;;11.17;;
60060;SDS011;45933;51.336;12.612;2023-03-01T03:45:13;17.73;;;10.63;;
60060;SDS011;45933;51.336;12.612;2023-03-01T03:47:38;17.30;;;10.77;;
60060;SDS011;45933;51.336;12.612;2023-03-01T03:50:04;18.90;;;10.43;;
60060;SDS011;45933;51.336;12.612;2023-03-01T03:52:29;16.47;;;10.33;;
60060;SDS011;45933;51.336;12.612;2023-03-01T03:54:55;17.10;;;10.47;;
60060;SDS011;45933;51.336;12.612;2023-03-01T03:57:20;16.90;;;10.83;;
60060;SDS011;45933;51.336;12.612;2023-03-01T03:59:46;19.10;;;10.30;;
60060;SDS011;45933;51.336;12.612;2023-03-01T04:02:11;16.67;;;10.27;;
60060;SDS011;45933;51.336;12.612;2023-03-01T04:04:36;16.30;;;9.97;;
60060;SDS011;45933;51.336;12.612;2023-03-01T04:07:02;19.20;;;11.53;;
60060;SDS011;45933;51.336;12.612;2023-03-01T04:09:27;20.27;;;11.20;;
60060;SDS011;45933;51.336;12.612;2023-03-01T04:11:55;14.93;;;9.80;;
60060;SDS011;45933;51.336;12.612;2023-03-01T04:14:20;19.07;;;10.63;;
60060;SDS011;45933;51.336;12.612;2023-03-01T04:16:45;18.93;;;11.60;;
60060;SDS011;45933;51.336;12.612;2023-03-01T04:19:11;19.40;;;11.17;;
60060;SDS011;45933;51.336;12.612;2023-03-01T04:21:36;17.33;;;11.00;;
60060;SDS011;45933;51.336;12.612;2023-03-01T04:24:01;17.23;;;10.47;;
60060;SDS011;45933;51.336;12.612;2023-03-01T04:26:28;15.90;;;10.90;;
60060;SDS011;45933;51.336;12.612;2023-03-01T04:28:53;20.27;;;10.53;;
60060;SDS011;45933;51.336;12.612;2023-03-01T04:31:19;17.47;;;10.00;;
60060;SDS011;45933;51.336;12.612;2023-03-01T04:33:47;17.60;;;10.73;;
60060;SDS011;45933;51.336;12.612;2023-03-01T04:36:16;18.17;;;10.73;;
60060;SDS011;45933;51.336;12.612;2023-03-01T04:38:42;15.93;;;10.30;;
60060;SDS011;45933;51.336;12.612;2023-03-01T04:41:12;15.43;;;10.47;;
60060;SDS011;45933;51.336;12.612;2023-03-01T04:43:38;19.67;;;10.90;;
60060;SDS011;45933;51.336;12.612;2023-03-01T04:46:04;16.87;;;11.00;;
60060;SDS011;45933;51.336;12.612;2023-03-01T04:48:37;18.37;;;11.17;;
60060;SDS011;45933;51.336;12.612;2023-03-01T04:51:04;19.07;;;11.63;;
60060;SDS011;45933;51.336;12.612;2023-03-01T04:53:30;19.80;;;11.47;;
60060;SDS011;45933;51.336;12.612;2023-03-01T04:55:57;16.97;;;11.80;;
60060;SDS011;45933;51.336;12.612;2023-03-01T04:58:24;18.67;;;11.50;;
60060;SDS011;45933;51.336;12.612;2023-03-01T05:00:51;18.53;;;12.53;;
60060;SDS011;45933;51.336;12.612;2023-03-01T05:03:17;18.07;;;12.17;;
60060;SDS011;45933;51.336;12.612;2023-03-01T05:05:43;18.37;;;12.23;;
60060;SDS011;45933;51.336;12.612;2023-03-01T05:08:09;20.07;;;11.90;;
60060;SDS011;45933;51.336;12.612;2023-03-01T05:10:42;20.03;;;12.03;;
60060;SDS011;45933;51.336;12.612;2023-03-01T05:13:12;19.80;;;12.47;;
60060;SDS011;45933;51.336;12.612;2023-03-01T05:15:40;23.67;;;12.47;;
60060;SDS011;45933;51.336;12.612;2023-03-01T05:18:05;19.57;;;12.73;;
60060;SDS011;45933;51.336;12.612;2023-03-01T05:20:36;20.47;;;11.97;;
60060;SDS011;45933;51.336;12.612;2023-03-01T05:23:02;21.87;;;13.07;;
60060;SDS011;45933;51.336;12.612;2023-03-01T05:25:30;20.30;;;12.40;;
60060;SDS011;45933;51.336;12.612;2023-03-01T05:27:57;22.83;;;12.70;;
60060;SDS011;45933;51.336;12.612;2023-03-01T05:30:23;21.03;;;13.00;;
60060;SDS011;45933;51.336;12.612;2023-03-01T05:32:49;19.23;;;12.00;;
60060;SDS011;45933;51.336;12.612;2023-03-01T05:35:20;22.40;;;13.40;;
60060;SDS011;45933;51.336;12.612;2023-03-01T05:37:47;22.10;;;13.80;;
60060;SDS011;45933;51.336;12.612;2023-03-01T05:40:14;20.50;;;13.30;;
60060;SDS011;45933;51.336;12.612;2023-03-01T05:43:00;24.10;;;13.37;;
60060;SDS011;45933;51.336;12.612;2023-03-01T05:45:26;22.23;;;13.57;;
60060;SDS011;45933;51.336;12.612;2023-03-01T05:47:52;23.80;;;13.97;;
60060;SDS011;45933;51.336;12.612;2023-03-01T05:50:27;19.37;;;12.23;;
60060;SDS011;45933;51.336;12.612;2023-03-01T05:55:24;20.87;;;13.03;;
60060;SDS011;45933;51.336;12.612;2023-03-01T05:57:50;22.23;;;13.23;;
60060;SDS011;45933;51.336;12.612;2023-03-01T06:00:16;21.60;;;12.87;;
60060;SDS011;45933;51.336;12.612;2023-03-01T06:02:44;22.17;;;13.27;;
60060;SDS011;45933;51.336;12.612;2023-03-01T06:05:10;21.20;;;12.63;;
60060;SDS011;45933;51.336;12.612;2023-03-01T06:07:37;20.43;;;13.07;;
60060;SDS011;45933;51.336;12.612;2023-03-01T06:10:03;22.73;;;13.30;;
60060;SDS011;45933;51.336;12.612;2023-03-01T06:12:32;21.00;;;13.73;;
60060;SDS011;45933;51.336;12.612;2023-03-01T06:14:59;22.27;;;12.67;;
60060;SDS011;45933;51.336;12.612;2023-03-01T06:17:25;20.80;;;13.20;;
60060;SDS011;45933;51.336;12.612;2023-03-01T06:19:53;25.07;;;13.43;;
60060;SDS011;45933;51.336;12.612;2023-03-01T06:22:18;18.87;;;12.37;;
60060;SDS011;45933;51.336;12.612;2023-03-01T06:24:44;24.37;;;13.17;;
60060;SDS011;45933;51.336;12.612;2023-03-01T06:27:09;25.40;;;13.20;;
60060;SDS011;45933;51.336;12.612;2023-03-01T06:29:34;21.53;;;13.63;;
60060;SDS011;45933;51.336;12.612;2023-03-01T06:31:59;20.90;;;12.77;;
60060;SDS011;45933;51.336;12.612;2023-03-01T06:34:25;22.23;;;12.00;;
60060;SDS011;45933;51.336;12.612;2023-03-01T06:36:50;19.90;;;11.93;;
60060;SDS011;45933;51.336;12.612;2023-03-01T06:39:15;19.50;;;11.77;;
60060;SDS011;45933;51.336;12.612;2023-03-01T06:41:42;19.23;;;11.50;;
60060;SDS011;45933;51.336;12.612;2023-03-01T06:44:07;19.53;;;11.93;;
60060;SDS011;45933;51.336;12.612;2023-03-01T06:46:33;17.20;;;10.90;;
60060;SDS011;45933;51.336;12.612;2023-03-01T06:48:58;18.73;;;11.37;;
60060;SDS011;45933;51.336;12.612;2023-03-01T06:51:23;20.60;;;12.43;;
60060;SDS011;45933;51.336;12.612;2023-03-01T06:53:49;21.47;;;12.43;;
60060;SDS011;45933;51.336;12.612;2023-03-01T06:56:14;20.43;;;11.57;;
60060;SDS011;45933;51.336;12.612;2023-03-01T06:58:39;20.73;;;11.83;;
60060;SDS011;45933;51.336;12.612;2023-03-01T07:01:05;22.30;;;11.03;;
60060;SDS011;45933;51.336;12.612;2023-03-01T07:03:34;21.00;;;11.83;;
60060;SDS011;45933;51.336;12.612;2023-03-01T07:05:59;21.93;;;11.47;;
60060;SDS011;45933;51.336;12.612;2023-03-01T07:08:25;23.57;;;12.40;;
60060;SDS011;45933;51.336;12.612;2023-03-01T07:10:59;21.67;;;11.70;;
60060;SDS011;45933;51.336;12.612;2023-03-01T07:13:26;22.17;;;11.37;;
60060;SDS011;45933;51.336;12.612;2023-03-01T07:15:52;22.33;;;12.33;;
60060;SDS011;45933;51.336;12.612;2023-03-01T07:18:17;15.97;;;10.73;;
60060;SDS011;45933;51.336;12.612;2023-03-01T07:20:42;24.70;;;13.20;;
60060;SDS011;45933;51.336;12.612;2023-03-01T07:23:08;19.93;;;11.70;;
60060;SDS011;45933;51.336;12.612;2023-03-01T07:25:33;19.73;;;11.67;;
60060;SDS011;45933;51.336;12.612;2023-03-01T07:27:58;23.40;;;12.73;;
60060;SDS011;45933;51.336;12.612;2023-03-01T07:30:24;19.03;;;11.30;;
60060;SDS011;45933;51.336;12.612;2023-03-01T07:32:52;25.10;;;12.17;;
60060;SDS011;45933;51.336;12.612;2023-03-01T07:35:18;22.57;;;12.27;;
60060;SDS011;45933;51.336;12.612;2023-03-01T07:37:43;22.97;;;12.77;;
60060;SDS011;45933;51.336;12.612;2023-03-01T07:40:09;19.00;;;11.23;;
60060;SDS011;45933;51.336;12.612;2023-03-01T07:42:35;19.93;;;11.90;;
60060;SDS011;45933;51.336;12.612;2023-03-01T07:45:00;22.20;;;11.90;;
60060;SDS011;45933;51.336;12.612;2023-03-01T07:47:26;19.53;;;12.50;;
60060;SDS011;45933;51.336;12.612;2023-03-01T07:49:51;22.17;;;13.20;;
60060;SDS011;45933;51.336;12.612;2023-03-01T07:52:16;24.80;;;13.73;;
60060;SDS011;45933;51.336;12.612;2023-03-01T07:54:44;20.20;;;12.17;;
60060;SDS011;45933;51.336;12.612;2023-03-01T07:57:10;26.33;;;13.53;;
60060;SDS011;45933;51.336;12.612;2023-03-01T07:59:35;24.70;;;13.57;;
60060;SDS011;45933;51.336;12.612;2023-03-01T08:02:00;22.33;;;12.83;;
60060;SDS011;45933;51.336;12.612;2023-03-01T08:04:26;26.03;;;14.10;;
60060;SDS011;45933;51.336;12.612;2023-03-01T08:06:51;21.33;;;13.00;;
60060;SDS011;45933;51.336;12.612;2023-03-01T08:09:17;25.63;;;13.47;;
60060;SDS011;45933;51.336;12.612;2023-03-01T08:11:43;22.17;;;13.43;;
60060;SDS011;45933;51.336;12.612;2023-03-01T08:14:08;29.17;;;15.37;;
60060;SDS011;45933;51.336;12.612;2023-03-01T08:16:35;24.20;;;13.90;;
60060;SDS011;45933;51.336;12.612;2023-03-01T08:19:04;25.17;;;13.60;;
60060;SDS011;45933;51.336;12.612;2023-03-01T08:21:36;21.70;;;13.77;;
60060;SDS011;45933;51.336;12.612;2023-03-01T08:24:03;23.63;;;14.90;;
60060;SDS011;45933;51.336;12.612;2023-03-01T08:26:29;24.33;;;14.20;;
60060;SDS011;45933;51.336;12.612;2023-03-01T08:28:55;22.00;;;13.83;;
60060;SDS011;45933;51.336;12.612;2023-03-01T08:31:22;19.10;;;12.27;;
60060;SDS011;45933;51.336;12.612;2023-03-01T08:33:52;19.50;;;12.73;;
60060;SDS011;45933;51.336;12.612;2023-03-01T08:36:22;20.73;;;13.23;;
60060;SDS011;45933;51.336;12.612;2023-03-01T08:38:49;18.93;;;12.77;;
60060;SDS011;45933;51.336;12.612;2023-03-01T08:41:15;16.90;;;12.93;;
60060;SDS011;45933;51.336;12.612;2023-03-01T08:43:40;19.83;;;13.17;;
60060;SDS011;45933;51.336;12.612;2023-03-01T08:46:05;21.25;;;13.45;;
60060;SDS011;45933;51.336;12.612;2023-03-01T08:48:31;19.70;;;13.38;;
60060;SDS011;45933;51.336;12.612;2023-03-01T08:50:56;20.30;;;13.43;;
60060;SDS011;45933;51.336;12.612;2023-03-01T08:53:21;18.55;;;13.48;;
60060;SDS011;45933;51.336;12.612;2023-03-01T08:55:47;19.15;;;13.68;;
60060;SDS011;45933;51.336;12.612;2023-03-01T08:58:12;17.92;;;13.40;;
60060;SDS011;45933;51.336;12.612;2023-03-01T09:00:38;20.17;;;13.88;;
60060;SDS011;45933;51.336;12.612;2023-03-01T09:03:03;20.73;;;14.07;;
60060;SDS011;45933;51.336;12.612;2023-03-01T09:05:31;19.95;;;13.60;;
60060;SDS011;45933;51.336;12.612;2023-03-01T09:07:57;22.58;;;14.25;;
60060;SDS011;45933;51.336;12.612;2023-03-01T09:10:23;17.40;;;13.88;;
60060;SDS011;45933;51.336;12.612;2023-03-01T09:12:48;18.58;;;12.90;;
60060;SDS011;45933;51.336;12.612;2023-03-01T09:15:13;16.05;;;12.73;;
60060;SDS011;45933;51.336;12.612;2023-03-01T09:17:39;16.58;;;13.20;;
60060;SDS011;45933;51.336;12.612;2023-03-01T09:20:04;17.67;;;13.07;;
60060;SDS011;45933;51.336;12.612;2023-03-01T09:22:32;20.02;;;13.48;;
60060;SDS011;45933;51.336;12.612;2023-03-01T09:24:58;16.77;;;12.77;;
60060;SDS011;45933;51.336;12.612;2023-03-01T09:27:24;16.48;;;12.07;;
60060;SDS011;45933;51.336;12.612;2023-03-01T09:29:50;16.52;;;12.45;;
60060;SDS011;45933;51.336;12.612;2023-03-01T09:32:15;16.70;;;13.38;;
60060;SDS011;45933;51.336;12.612;2023-03-01T09:34:40;16.40;;;13.07;;
60060;SDS011;45933;51.336;12.612;2023-03-01T09:37:26;15.05;;;12.27;;
60060;SDS011;45933;51.336;12.612;2023-03-01T09:39:51;15.65;;;13.52;;
60060;SDS011;45933;51.336;12.612;2023-03-01T09:42:17;15.73;;;12.82;;
60060;SDS011;45933;51.336;12.612;2023-03-01T09:44:44;14.55;;;13.00;;
60060;SDS011;45933;51.336;12.612;2023-03-01T09:47:33;17.65;;;13.38;;
60060;SDS011;45933;51.336;12.612;2023-03-01T09:50:02;18.52;;;14.32;;
60060;SDS011;45933;51.336;12.612;2023-03-01T09:52:38;19.33;;;13.98;;
60060;SDS011;45933;51.336;12.612;2023-03-01T09:55:17;17.38;;;13.82;;
60060;SDS011;45933;51.336;12.612;2023-03-01T09:57:50;17.45;;;14.35;;
60060;SDS011;45933;51.336;12.612;2023-03-01T10:00:39;16.30;;;13.52;;
60060;SDS011;45933;51.336;12.612;2023-03-01T10:03:28;16.63;;;14.35;;
60060;SDS011;45933;51.336;12.612;2023-03-01T10:06:04;16.55;;;13.77;;
60060;SDS011;45933;51.336;12.612;2023-03-01T10:08:51;16.98;;;14.98;;
60060;SDS011;45933;51.336;12.612;2023-03-01T10:11:22;16.17;;;13.80;;
60060;SDS011;45933;51.336;12.612;2023-03-01T10:13:55;19.08;;;15.15;;
60060;SDS011;45933;51.336;12.612;2023-03-01T10:16:42;16.98;;;13.98;;
60060;SDS011;45933;51.336;12.612;2023-03-01T10:19:24;17.23;;;14.15;;
60060;SDS011;45933;51.336;12.612;2023-03-01T10:21:54;17.30;;;14.27;;
60060;SDS011;45933;51.336;12.612;2023-03-01T10:24:34;15.57;;;12.95;;
60060;SDS011;45933;51.336;12.612;2023-03-01T10:27:02;16.48;;;12.75;;
60060;SDS011;45933;51.336;12.612;2023-03-01T10:29:46;16.15;;;13.15;;
60060;SDS011;45933;51.336;12.612;2023-03-01T10:32:23;17.30;;;13.30;;
60060;SDS011;45933;51.336;12.612;2023-03-01T10:34:49;14.82;;;13.07;;
60060;SDS011;45933;51.336;12.612;2023-03-01T10:37:18;15.02;;;12.60;;
60060;SDS011;45933;51.336;12.612;2023-03-01T10:42:38;16.65;;;13.50;;
60060;SDS011;45933;51.336;12.612;2023-03-01T10:45:15;17.25;;;13.27;;
60060;SDS011;45933;51.336;12.612;2023-03-01T10:50:49;14.93;;;13.05;;
60060;SDS011;45933;51.336;12.612;2023-03-01T10:53:23;15.77;;;12.63;;
60060;SDS011;45933;51.336;12.612;2023-03-01T10:55:57;22.85;;;14.38;;
60060;SDS011;45933;51.336;12.612;2023-03-01T10:58:25;16.33;;;14.38;;
60060;SDS011;45933;51.336;12.612;2023-03-01T11:00:55;15.15;;;13.23;;
60060;SDS011;45933;51.336;12.612;2023-03-01T11:03:26;14.73;;;13.05;;
60060;SDS011;45933;51.336;12.612;2023-03-01T11:11:13;16.40;;;13.25;;
60060;SDS011;45933;51.336;12.612;2023-03-01T11:13:53;18.95;;;14.43;;
60060;SDS011;45933;51.336;12.612;2023-03-01T11:16:22;17.27;;;14.00;;
60060;SDS011;45933;51.336;12.612;2023-03-01T11:18:57;16.17;;;13.85;;
60060;SDS011;45933;51.336;12.612;2023-03-01T11:21:42;16.58;;;13.13;;
60060;SDS011;45933;51.336;12.612;2023-03-01T11:24:24;16.65;;;13.45;;
60060;SDS011;45933;51.336;12.612;2023-03-01T11:26:55;15.60;;;13.15;;
60060;SDS011;45933;51.336;12.612;2023-03-01T11:29:32;17.48;;;14.48;;
60060;SDS011;45933;51.336;12.612;2023-03-01T11:32:12;16.77;;;13.82;;
60060;SDS011;45933;51.336;12.612;2023-03-01T11:34:43;15.15;;;13.32;;
60060;SDS011;45933;51.336;12.612;2023-03-01T11:37:33;15.30;;;13.63;;
60060;SDS011;45933;51.336;12.612;2023-03-01T11:40:17;16.67;;;13.85;;
60060;SDS011;45933;51.336;12.612;2023-03-01T11:42:59;16.88;;;13.98;;
60060;SDS011;45933;51.336;12.612;2023-03-01T11:51:13;16.15;;;13.25;;
60060;SDS011;45933;51.336;12.612;2023-03-01T11:53:58;15.90;;;13.43;;
60060;SDS011;45933;51.336;12.612;2023-03-01T11:56:32;14.57;;;11.38;;
60060;SDS011;45933;51.336;12.612;2023-03-01T11:59:25;18.33;;;13.23;;
60060;SDS011;45933;51.336;12.612;2023-03-01T12:02:19;13.23;;;11.45;;
60060;SDS011;45933;51.336;12.612;2023-03-01T12:05:22;16.08;;;12.02;;
60060;SDS011;45933;51.336;12.612;2023-03-01T12:08:10;13.13;;;11.73;;
60060;SDS011;45933;51.336;12.612;2023-03-01T12:13:40;14.00;;;11.50;;
60060;SDS011;45933;51.336;12.612;2023-03-01T12:16:31;13.73;;;11.35;;
60060;SDS011;45933;51.336;12.612;2023-03-01T12:19:28;12.88;;;11.23;;
60060;SDS011;45933;51.336;12.612;2023-03-01T12:30:35;15.07;;;12.40;;
60060;SDS011;45933;51.336;12.612;2023-03-01T12:38:52;13.95;;;11.77;;
60060;SDS011;45933;51.336;12.612;2023-03-01T12:41:51;15.30;;;11.48;;
60060;SDS011;45933;51.336;12.612;2023-03-01T12:44:36;12.70;;;11.40;;
60060;SDS011;45933;51.336;12.612;2023-03-01T12:47:15;13.70;;;11.70;;
60060;SDS011;45933;51.336;12.612;2023-03-01T12:49:45;14.18;;;11.82;;
60060;SDS011;45933;51.336;12.612;2023-03-01T12:52:27;14.60;;;12.15;;
60060;SDS011;45933;51.336;12.612;2023-03-01T12:55:27;14.02;;;11.70;;
60060;SDS011;45933;51.336;12.612;2023-03-01T12:58:04;15.15;;;12.23;;
60060;SDS011;45933;51.336;12.612;2023-03-01T13:06:53;17.25;;;11.65;;
60060;SDS011;45933;51.336;12.612;2023-03-01T13:09:29;14.43;;;11.70;;
60060;SDS011;45933;51.336;12.612;2023-03-01T13:12:01;14.95;;;12.43;;
60060;SDS011;45933;51.336;12.612;2023-03-01T13:17:00;13.70;;;10.98;;
60060;SDS011;45933;51.336;12.612;2023-03-01T13:19:25;15.05;;;11.68;;
60060;SDS011;45933;51.336;12.612;2023-03-01T13:21:54;13.40;;;11.40;;
60060;SDS011;45933;51.336;12.612;2023-03-01T13:32:18;14.10;;;11.80;;
60060;SDS011;45933;51.336;12.612;2023-03-01T13:34:47;11.45;;;10.20;;
60060;SDS011;45933;51.336;12.612;2023-03-01T13:37:21;15.77;;;11.07;;
60060;SDS011;45933;51.336;12.612;2023-03-01T13:39:51;12.70;;;10.63;;
60060;SDS011;45933;51.336;12.612;2023-03-01T13:42:34;10.65;;;9.27;;
60060;SDS011;45933;51.336;12.612;2023-03-01T13:45:02;11.02;;;9.82;;
60060;SDS011;45933;51.336;12.612;2023-03-01T13:47:30;13.05;;;9.75;;
60060;SDS011;45933;51.336;12.612;2023-03-01T13:50:00;13.60;;;9.98;;
60060;SDS011;45933;51.336;12.612;2023-03-01T13:55:23;12.25;;;9.73;;
60060;SDS011;45933;51.336;12.612;2023-03-01T13:57:58;11.65;;;9.52;;
60060;SDS011;45933;51.336;12.612;2023-03-01T14:03:08;11.82;;;9.95;;
60060;SDS011;45933;51.336;12.612;2023-03-01T14:05:35;16.23;;;10.38;;
60060;SDS011;45933;51.336;12.612;2023-03-01T14:08:01;13.25;;;10.68;;
60060;SDS011;45933;51.336;12.612;2023-03-01T14:10:53;13.45;;;11.18;;
60060;SDS011;45933;51.336;12.612;2023-03-01T14:13:23;13.43;;;10.82;;
60060;SDS011;45933;51.336;12.612;2023-03-01T14:18:47;12.15;;;10.25;;
60060;SDS011;45933;51.336;12.612;2023-03-01T14:21:34;15.43;;;10.65;;
60060;SDS011;45933;51.336;12.612;2023-03-01T14:24:01;15.02;;;10.77;;
60060;SDS011;45933;51.336;12.612;2023-03-01T14:26:26;12.13;;;10.00;;
60060;SDS011;45933;51.336;12.612;2023-03-01T14:28:52;10.45;;;8.77;;
60060;SDS011;45933;51.336;12.612;2023-03-01T14:31:29;11.60;;;8.73;;
60060;SDS011;45933;51.336;12.612;2023-03-01T14:33:59;11.88;;;8.75;;
60060;SDS011;45933;51.336;12.612;2023-03-01T14:36:28;16.33;;;9.60;;
60060;SDS011;45933;51.336;12.612;2023-03-01T14:38:56;11.13;;;8.88;;
60060;SDS011;45933;51.336;12.612;2023-03-01T14:41:29;10.85;;;8.85;;
60060;SDS011;45933;51.336;12.612;2023-03-01T14:44:00;11.65;;;8.30;;
60060;SDS011;45933;51.336;12.612;2023-03-01T14:46:37;11.88;;;8.35;;
60060;SDS011;45933;51.336;12.612;2023-03-01T14:49:15;9.50;;;7.63;;
60060;SDS011;45933;51.336;12.612;2023-03-01T14:52:45;11.38;;;7.30;;
60060;SDS011;45933;51.336;12.612;2023-03-01T14:54:51;9.77;;;7.57;;
60060;SDS011;45933;51.336;12.612;2023-03-01T14:57:20;10.07;;;8.23;;
60060;SDS011;45933;51.336;12.612;2023-03-01T14:59:47;10.32;;;7.53;;
60060;SDS011;45933;51.336;12.612;2023-03-01T15:02:17;10.27;;;6.95;;
60060;SDS011;45933;51.336;12.612;2023-03-01T15:05:18;9.50;;;6.97;;
60060;SDS011;45933;51.336;12.612;2023-03-01T15:07:39;8.63;;;6.70;;
60060;SDS011;45933;51.336;12.612;2023-03-01T15:10:07;9.57;;;7.35;;
60060;SDS011;45933;51.336;12.612;2023-03-01T15:12:42;9.15;;;7.00;;
60060;SDS011;45933;51.336;12.612;2023-03-01T15:15:30;11.68;;;7.63;;
60060;SDS011;45933;51.336;12.612;2023-03-01T15:18:05;9.15;;;7.10;;
60060;SDS011;45933;51.336;12.612;2023-03-01T15:20:40;7.68;;;6.35;;
60060;SDS011;45933;51.336;12.612;2023-03-01T15:23:05;11.20;;;7.10;;
60060;SDS011;45933;51.336;12.612;2023-03-01T15:25:44;9.32;;;7.10;;
60060;SDS011;45933;51.336;12.612;2023-03-01T15:28:18;12.27;;;7.45;;
60060;SDS011;45933;51.336;12.612;2023-03-01T15:30:45;9.63;;;6.25;;
60060;SDS011;45933;51.336;12.612;2023-03-01T15:33:20;9.50;;;6.65;;
60060;SDS011;45933;51.336;12.612;2023-03-01T15:35:55;9.82;;;6.60;;
60060;SDS011;45933;51.336;12.612;2023-03-01T15:38:35;9.00;;;5.95;;